createdAt,value
2023-04-05T00:00:54.438Z,93023.28
2023-04-05T00:01:51.254Z,93153.03
2023-04-05T00:02:47.923Z,93153.09
2023-04-05T00:03:44.678Z,93150.84
2023-04-05T00:04:50.476Z,93153.38
2023-04-05T00:05:50.068Z,93149.22
2023-04-05T00:06:52.595Z,93150.75
2023-04-05T00:07:54.489Z,93144.97
2023-04-05T00:08:51.101Z,93143.00
2023-04-05T00:09:47.938Z,93142.22
2023-04-05T00:10:44.512Z,93113.72
2023-04-05T00:11:41.084Z,93139.16
2023-04-05T00:12:37.703Z,93143.13
2023-04-05T00:13:34.329Z,93119.69
2023-04-05T00:14:30.982Z,93092.59
2023-04-05T00:15:28.205Z,93133.41
2023-04-05T00:16:25.038Z,93134.09
2023-04-05T00:17:22.482Z,93129.84
2023-04-05T00:18:22.228Z,93108.13
2023-04-05T00:19:19.681Z,93132.16
2023-04-05T00:20:16.304Z,93134.25
2023-04-05T00:21:15.563Z,93131.72
2023-04-05T00:22:12.183Z,93115.16
2023-04-05T00:23:10.510Z,93130.38
2023-04-05T00:24:08.064Z,93131.56
2023-04-05T00:25:05.665Z,93068.75
2023-04-05T00:26:02.242Z,93134.72
2023-04-05T00:26:58.783Z,93110.50
2023-04-05T00:27:55.464Z,93129.47
2023-04-05T00:28:52.632Z,93147.47
2023-04-05T00:29:49.309Z,93133.00
2023-04-05T00:30:46.023Z,93075.41
2023-04-05T00:31:42.640Z,93115.84
2023-04-05T00:32:39.284Z,93146.00
2023-04-05T00:33:36.062Z,93103.81
2023-04-05T00:34:33.858Z,93139.38
2023-04-05T00:35:31.135Z,93134.25
2023-04-05T00:36:27.779Z,93097.56
2023-04-05T00:37:24.439Z,93137.34
2023-04-05T00:38:21.186Z,93136.75
2023-04-05T00:39:17.775Z,93133.31
2023-04-05T00:40:14.441Z,93137.22
2023-04-05T00:41:12.180Z,93135.53
2023-04-05T00:42:09.234Z,93116.63
2023-04-05T00:43:05.979Z,93129.34
2023-04-05T00:44:03.930Z,93146.13
2023-04-05T00:45:00.794Z,93130.53
2023-04-05T00:45:57.681Z,93133.28
2023-04-05T00:46:55.436Z,93096.91
2023-04-05T00:47:52.456Z,93124.09
2023-04-05T00:48:49.184Z,93135.25
2023-04-05T00:49:46.392Z,93141.13
2023-04-05T00:50:43.675Z,93129.59
2023-04-05T00:51:40.871Z,93144.19
2023-04-05T00:52:43.603Z,93108.09
2023-04-05T00:53:40.959Z,93117.94
2023-04-05T00:54:39.252Z,93154.03
2023-04-05T00:55:36.527Z,93025.50
2023-04-05T00:56:33.289Z,93122.50
2023-04-05T00:57:30.367Z,93145.50
2023-04-05T00:58:27.303Z,93144.41
2023-04-05T00:59:24.056Z,93141.97
2023-04-05T01:00:21.565Z,93138.69
2023-04-05T01:01:23.871Z,93122.66
2023-04-05T01:02:33.929Z,93138.31
2023-04-05T01:03:32.634Z,93105.97
2023-04-05T01:04:32.818Z,93114.13
2023-04-05T01:05:48.257Z,93136.19
2023-04-05T01:07:03.318Z,93136.59
2023-04-05T01:08:09.660Z,93134.75
2023-04-05T01:09:16.918Z,93144.47
2023-04-05T01:10:17.420Z,93139.00
2023-04-05T01:11:17.086Z,93070.56
2023-04-05T01:12:18.233Z,93144.19
2023-04-05T01:13:17.266Z,93139.84
2023-04-05T01:14:14.443Z,93153.78
2023-04-05T01:15:12.509Z,93149.28
2023-04-05T01:16:10.349Z,93150.81
2023-04-05T01:17:09.677Z,93145.91
2023-04-05T01:18:06.411Z,93144.31
2023-04-05T01:19:03.995Z,93109.94
2023-04-05T01:20:09.020Z,93152.63
2023-04-05T01:21:34.062Z,93147.38
2023-04-05T01:22:54.110Z,93146.91
2023-04-05T01:24:09.994Z,93149.44
2023-04-05T01:25:14.716Z,93155.94
2023-04-05T01:26:30.790Z,93140.75
2023-04-05T01:27:58.029Z,93153.19
2023-04-05T01:29:25.837Z,93153.75
2023-04-05T01:30:26.691Z,93138.56
2023-04-05T01:31:35.091Z,93163.84
2023-04-05T01:32:40.452Z,93159.53
2023-04-05T01:33:48.806Z,93159.72
2023-04-05T01:34:52.530Z,93153.53
2023-04-05T01:35:59.447Z,93151.34
2023-04-05T01:37:06.014Z,93159.13
2023-04-05T01:38:05.513Z,93154.84
2023-04-05T01:39:05.112Z,93159.13
2023-04-05T01:40:02.579Z,93101.50
2023-04-05T01:40:59.789Z,93112.47
2023-04-05T01:42:01.316Z,93166.44
2023-04-05T01:42:58.030Z,93163.47
2023-04-05T01:43:54.867Z,93170.00
2023-04-05T01:44:55.489Z,93167.97
2023-04-05T01:45:52.256Z,93138.31
2023-04-05T01:46:48.997Z,93131.22
2023-04-05T01:47:45.876Z,93168.06
2023-04-05T01:48:42.461Z,93162.16
2023-04-05T01:49:39.128Z,93164.03
2023-04-05T01:50:35.954Z,93121.78
2023-04-05T01:51:33.415Z,93161.88
2023-04-05T01:52:30.131Z,93168.88
2023-04-05T01:53:26.752Z,93168.88
2023-04-05T01:54:23.440Z,93172.25
2023-04-05T01:55:20.096Z,93190.97
2023-04-05T01:56:16.892Z,93173.31
2023-04-05T01:57:13.723Z,93171.88
2023-04-05T01:58:10.618Z,93168.34
2023-04-05T01:59:07.469Z,93073.34
2023-04-05T02:00:04.748Z,93171.91
2023-04-05T02:01:01.456Z,93104.09
2023-04-05T02:01:58.297Z,93171.88
2023-04-05T02:02:55.060Z,93173.81
2023-04-05T02:03:51.807Z,93180.28
2023-04-05T02:04:48.546Z,93169.34
2023-04-05T02:05:45.345Z,93169.16
2023-04-05T02:06:42.398Z,93154.59
2023-04-05T02:07:39.136Z,93145.47
2023-04-05T02:08:35.850Z,93119.19
2023-04-05T02:09:32.384Z,93160.91
2023-04-05T02:10:28.978Z,93149.69
2023-04-05T02:11:25.548Z,93162.47
2023-04-05T02:12:22.819Z,93168.00
2023-04-05T02:13:22.385Z,93165.09
2023-04-05T02:14:19.084Z,93163.59
2023-04-05T02:15:16.594Z,93164.25
2023-04-05T02:16:13.378Z,93161.81
2023-04-05T02:17:10.043Z,93153.75
2023-04-05T02:18:08.100Z,93124.84
2023-04-05T02:19:06.059Z,93170.06
2023-04-05T02:20:04.608Z,93164.59
2023-04-05T02:21:03.182Z,93166.66
2023-04-05T02:21:59.793Z,93165.03
2023-04-05T02:22:56.920Z,93169.56
2023-04-05T02:23:54.035Z,93142.38
2023-04-05T02:24:50.629Z,93164.53
2023-04-05T02:25:48.353Z,93111.47
2023-04-05T02:26:44.975Z,93169.66
2023-04-05T02:27:41.603Z,93162.59
2023-04-05T02:28:38.306Z,93104.06
2023-04-05T02:29:35.002Z,93167.81
2023-04-05T02:30:31.885Z,93142.00
2023-04-05T02:31:28.585Z,93165.16
2023-04-05T02:32:25.677Z,93166.75
2023-04-05T02:33:25.229Z,93165.69
2023-04-05T02:34:23.029Z,93168.66
2023-04-05T02:35:21.357Z,93165.94
2023-04-05T02:36:18.578Z,93160.03
2023-04-05T02:37:15.337Z,93166.50
2023-04-05T02:38:11.990Z,93163.97
2023-04-05T02:39:08.591Z,93161.06
2023-04-05T02:40:09.798Z,93121.47
2023-04-05T02:41:11.744Z,93129.41
2023-04-05T02:42:08.559Z,93166.63
2023-04-05T02:43:05.190Z,93042.84
2023-04-05T02:44:01.910Z,93169.78
2023-04-05T02:44:58.584Z,93164.50
2023-04-05T02:45:55.522Z,93124.25
2023-04-05T02:46:52.215Z,93170.34
2023-04-05T02:47:48.938Z,93162.75
2023-04-05T02:48:45.902Z,93171.69
2023-04-05T02:49:42.526Z,93162.50
2023-04-05T02:50:39.405Z,93170.47
2023-04-05T02:51:36.365Z,93163.31
2023-04-05T02:52:34.317Z,93171.19
2023-04-05T02:53:31.152Z,93168.28
2023-04-05T02:54:27.837Z,93168.09
2023-04-05T02:55:24.830Z,93169.97
2023-04-05T02:56:22.144Z,93119.47
2023-04-05T02:57:18.763Z,93167.28
2023-04-05T02:58:15.992Z,93161.69
2023-04-05T02:59:13.684Z,93163.47
2023-04-05T03:00:12.124Z,93163.31
2023-04-05T03:01:08.935Z,93166.84
2023-04-05T03:02:06.701Z,93164.09
2023-04-05T03:03:03.432Z,93172.75
2023-04-05T03:04:00.393Z,93166.78
2023-04-05T03:04:57.223Z,93103.97
2023-04-05T03:06:10.222Z,93167.56
2023-04-05T03:07:08.016Z,93138.44
2023-04-05T03:08:04.819Z,93157.78
2023-04-05T03:09:02.200Z,93111.38
2023-04-05T03:09:59.562Z,93166.56
2023-04-05T03:10:56.136Z,93162.81
2023-04-05T03:11:52.768Z,93131.63
2023-04-05T03:12:51.488Z,93168.94
2023-04-05T03:13:48.017Z,93168.72
2023-04-05T03:14:46.084Z,93166.88
2023-04-05T03:15:42.933Z,93148.03
2023-04-05T03:16:40.127Z,93160.69
2023-04-05T03:17:37.495Z,93168.22
2023-04-05T03:18:34.167Z,93166.25
2023-04-05T03:19:30.758Z,93166.09
2023-04-05T03:20:27.413Z,93169.56
2023-04-05T03:21:24.282Z,93164.81
2023-04-05T03:22:21.894Z,93171.16
2023-04-05T03:23:18.694Z,93161.63
2023-04-05T03:24:16.168Z,93135.84
2023-04-05T03:25:12.762Z,93164.97
2023-04-05T03:26:10.420Z,93165.91
2023-04-05T03:27:07.277Z,93159.50
2023-04-05T03:28:05.742Z,93156.16
2023-04-05T03:29:02.359Z,93163.09
2023-04-05T03:29:59.186Z,93166.88
2023-04-05T03:30:56.040Z,93140.47
2023-04-05T03:31:52.787Z,93169.50
2023-04-05T03:32:49.517Z,93172.31
2023-04-05T03:33:46.171Z,93164.09
2023-04-05T03:34:42.765Z,93166.38
2023-04-05T03:35:39.705Z,93162.03
2023-04-05T03:36:42.921Z,93160.66
2023-04-05T03:37:39.581Z,93127.38
2023-04-05T03:38:36.241Z,93149.13
2023-04-05T03:39:32.860Z,93166.19
2023-04-05T03:40:29.430Z,93164.94
2023-04-05T03:41:26.085Z,93166.47
2023-04-05T03:42:22.694Z,93136.78
2023-04-05T03:43:19.357Z,93166.72
2023-04-05T03:44:15.934Z,93166.38
2023-04-05T03:45:12.620Z,93173.25
2023-04-05T03:46:09.352Z,93144.53
2023-04-05T03:47:06.163Z,93129.22
2023-04-05T03:48:03.371Z,93137.81
2023-04-05T03:49:01.185Z,93175.69
2023-04-05T03:49:57.758Z,93174.25
2023-04-05T03:50:54.382Z,93173.66
2023-04-05T03:51:51.010Z,93175.91
2023-04-05T03:52:47.745Z,93180.66
2023-04-05T03:53:44.948Z,93182.88
2023-04-05T03:54:41.802Z,93181.72
2023-04-05T03:55:38.707Z,93182.72
2023-04-05T03:56:35.530Z,93178.72
2023-04-05T03:57:32.247Z,93185.72
2023-04-05T03:58:28.938Z,93180.16
2023-04-05T03:59:26.088Z,93181.03
2023-04-05T04:00:23.924Z,93183.66
2023-04-05T04:01:20.869Z,93186.50
2023-04-05T04:02:17.639Z,93178.16
2023-04-05T04:03:15.206Z,93182.69
2023-04-05T04:04:13.690Z,93185.75
2023-04-05T04:05:11.965Z,93190.44
2023-04-05T04:06:08.760Z,93192.09
2023-04-05T04:07:05.916Z,93185.03
2023-04-05T04:08:02.544Z,93193.09
2023-04-05T04:08:59.240Z,93194.53
2023-04-05T04:09:56.582Z,93193.06
2023-04-05T04:10:53.208Z,93202.22
2023-04-05T04:11:49.821Z,93199.75
2023-04-05T04:12:46.442Z,93001.81
2023-04-05T04:13:43.017Z,93191.16
2023-04-05T04:14:39.613Z,93193.78
2023-04-05T04:15:36.233Z,93165.31
2023-04-05T04:16:32.886Z,93204.91
2023-04-05T04:17:31.370Z,93192.56
2023-04-05T04:18:27.946Z,93201.50
2023-04-05T04:19:24.520Z,93202.22
2023-04-05T04:20:21.432Z,93200.06
2023-04-05T04:21:19.202Z,93207.25
2023-04-05T04:22:20.633Z,93184.72
2023-04-05T04:23:19.442Z,93149.94
2023-04-05T04:24:18.917Z,93199.53
2023-04-05T04:25:18.796Z,93162.34
2023-04-05T04:26:15.502Z,93196.97
2023-04-05T04:27:12.106Z,93188.91
2023-04-05T04:28:09.529Z,93208.41
2023-04-05T04:29:06.887Z,93209.69
2023-04-05T04:30:04.497Z,93202.00
2023-04-05T04:31:05.161Z,93198.22
2023-04-05T04:32:01.888Z,93201.81
2023-04-05T04:32:59.950Z,93208.03
2023-04-05T04:33:56.585Z,93202.41
2023-04-05T04:34:56.023Z,93201.56
2023-04-05T04:35:54.897Z,93205.53
2023-04-05T04:37:00.874Z,93208.91
2023-04-05T04:38:02.558Z,93192.41
2023-04-05T04:38:59.325Z,93212.19
2023-04-05T04:39:56.153Z,93207.53
2023-04-05T04:40:53.957Z,93205.31
2023-04-05T04:41:50.649Z,93209.69
2023-04-05T04:42:47.355Z,93207.16
2023-04-05T04:43:44.747Z,93209.75
2023-04-05T04:44:42.786Z,93169.63
2023-04-05T04:45:39.690Z,93209.00
2023-04-05T04:46:43.165Z,93205.13
2023-04-05T04:47:39.811Z,93181.94
2023-04-05T04:48:38.007Z,93208.03
2023-04-05T04:49:34.636Z,93215.31
2023-04-05T04:50:34.523Z,93194.94
2023-04-05T04:51:31.885Z,93216.38
2023-04-05T04:52:28.472Z,93212.16
2023-04-05T04:53:25.073Z,93214.00
2023-04-05T04:54:22.178Z,93213.09
2023-04-05T04:55:25.305Z,93222.91
2023-04-05T04:56:22.028Z,93214.53
2023-04-05T04:57:18.689Z,93205.44
2023-04-05T04:58:15.846Z,93179.13
2023-04-05T04:59:12.494Z,93219.31
2023-04-05T05:00:15.777Z,93213.09
2023-04-05T05:01:12.414Z,93208.41
2023-04-05T05:02:09.181Z,93213.44
2023-04-05T05:03:06.301Z,93215.56
2023-04-05T05:04:04.085Z,93227.84
2023-04-05T05:05:00.768Z,93211.72
2023-04-05T05:05:57.328Z,93189.69
2023-04-05T05:06:54.188Z,93208.91
2023-04-05T05:07:52.902Z,93214.81
2023-04-05T05:08:49.571Z,93212.50
2023-04-05T05:09:46.227Z,93212.66
2023-04-05T05:10:43.352Z,93196.69
2023-04-05T05:11:40.372Z,93206.88
2023-04-05T05:12:38.341Z,93213.84
2023-04-05T05:13:35.053Z,93211.81
2023-04-05T05:14:31.671Z,93218.63
2023-04-05T05:15:28.270Z,93216.88
2023-04-05T05:16:24.934Z,93164.38
2023-04-05T05:17:21.871Z,93188.53
2023-04-05T05:18:18.786Z,93214.47
2023-04-05T05:19:15.526Z,93219.28
2023-04-05T05:20:12.749Z,93198.88
2023-04-05T05:21:09.499Z,93210.19
2023-04-05T05:22:06.035Z,93220.47
2023-04-05T05:23:04.032Z,93219.25
2023-04-05T05:24:00.752Z,93206.84
2023-04-05T05:24:57.330Z,93222.88
2023-04-05T05:26:00.443Z,93220.06
2023-04-05T05:26:57.008Z,93174.13
2023-04-05T05:27:53.676Z,93223.06
2023-04-05T05:28:50.330Z,93222.91
2023-04-05T05:29:47.426Z,93222.53
2023-04-05T05:30:45.110Z,93215.38
2023-04-05T05:31:41.978Z,93186.63
2023-04-05T05:32:39.690Z,93212.25
2023-04-05T05:33:37.847Z,93213.81
2023-04-05T05:34:34.747Z,93178.94
2023-04-05T05:35:31.391Z,93217.69
2023-04-05T05:36:28.123Z,93220.66
2023-04-05T05:37:32.125Z,93217.00
2023-04-05T05:38:28.736Z,93211.66
2023-04-05T05:39:25.589Z,93181.28
2023-04-05T05:40:22.169Z,93222.41
2023-04-05T05:41:18.806Z,93222.41
2023-04-05T05:42:15.403Z,93223.97
2023-04-05T05:43:11.976Z,93221.75
2023-04-05T05:44:08.542Z,93217.56
2023-04-05T05:45:06.462Z,93221.00
2023-04-05T05:46:03.196Z,93178.94
2023-04-05T05:46:59.801Z,93223.69
2023-04-05T05:47:56.962Z,93200.88
2023-04-05T05:48:53.703Z,93215.75
2023-04-05T05:49:50.440Z,93218.75
2023-04-05T05:50:49.348Z,93216.16
2023-04-05T05:51:46.540Z,93217.81
2023-04-05T05:52:43.134Z,93225.16
2023-04-05T05:53:40.253Z,93220.44
2023-04-05T05:54:36.908Z,93223.50
2023-04-05T05:55:33.714Z,93219.25
2023-04-05T05:56:30.841Z,93218.34
2023-04-05T05:57:27.422Z,93218.75
2023-04-05T05:58:24.078Z,93221.50
2023-04-05T05:59:20.906Z,93217.28
2023-04-05T06:00:18.344Z,93218.03
2023-04-05T06:01:14.931Z,93213.00
2023-04-05T06:02:11.536Z,93215.72
2023-04-05T06:03:08.275Z,93214.28
2023-04-05T06:04:05.141Z,93217.44
2023-04-05T06:05:02.856Z,93213.78
2023-04-05T06:06:00.203Z,93223.94
2023-04-05T06:06:57.989Z,93172.91
2023-04-05T06:07:54.636Z,93216.91
2023-04-05T06:08:51.506Z,93217.84
2023-04-05T06:09:48.519Z,93217.13
2023-04-05T06:10:45.127Z,93172.19
2023-04-05T06:11:53.282Z,93208.81
2023-04-05T06:12:52.875Z,93221.16
2023-04-05T06:13:52.487Z,93228.06
2023-04-05T06:14:49.344Z,93218.66
2023-04-05T06:15:47.959Z,93224.81
2023-04-05T06:16:44.565Z,93227.81
2023-04-05T06:17:42.732Z,93208.34
2023-04-05T06:18:39.454Z,93223.28
2023-04-05T06:19:36.024Z,93232.50
2023-04-05T06:20:32.609Z,93213.88
2023-04-05T06:21:29.125Z,93233.31
2023-04-05T06:22:25.846Z,93218.91
2023-04-05T06:23:22.408Z,93235.41
2023-04-05T06:24:19.132Z,93235.13
2023-04-05T06:25:17.068Z,93233.81
2023-04-05T06:26:20.682Z,93223.88
2023-04-05T06:27:17.151Z,93237.88
2023-04-05T06:28:13.708Z,93241.47
2023-04-05T06:29:10.265Z,93226.78
2023-04-05T06:30:07.690Z,93244.28
2023-04-05T06:31:04.448Z,93238.06
2023-04-05T06:32:01.619Z,93217.63
2023-04-05T06:32:58.361Z,93240.91
2023-04-05T06:33:55.084Z,93241.34
2023-04-05T06:34:51.748Z,93224.56
2023-04-05T06:35:48.511Z,93240.59
2023-04-05T06:36:46.710Z,93247.13
2023-04-05T06:37:43.382Z,93248.16
2023-04-05T06:38:39.981Z,93247.53
2023-04-05T06:39:37.049Z,93189.91
2023-04-05T06:40:33.647Z,93244.50
2023-04-05T06:41:30.710Z,93248.91
2023-04-05T06:42:28.120Z,93229.53
2023-04-05T06:43:24.944Z,93240.50
2023-04-05T06:44:21.548Z,93252.59
2023-04-05T06:45:19.830Z,93249.38
2023-04-05T06:46:16.598Z,93249.31
2023-04-05T06:47:13.692Z,93249.44
2023-04-05T06:48:11.011Z,93237.72
2023-04-05T06:49:07.630Z,93257.59
2023-04-05T06:50:06.151Z,93259.09
2023-04-05T06:51:03.773Z,93256.00
2023-04-05T06:52:00.371Z,93251.31
2023-04-05T06:52:57.238Z,93257.97
2023-04-05T06:53:53.815Z,93264.44
2023-04-05T06:54:50.367Z,93261.72
2023-04-05T06:55:53.388Z,93250.84
2023-04-05T06:56:49.975Z,93273.22
2023-04-05T06:57:46.625Z,93270.69
2023-04-05T06:58:44.165Z,93266.31
2023-04-05T06:59:40.866Z,93271.41
2023-04-05T07:00:37.532Z,93260.94
2023-04-05T07:01:34.190Z,93281.25
2023-04-05T07:02:30.960Z,93277.38
2023-04-05T07:03:27.876Z,93258.47
2023-04-05T07:04:24.690Z,93263.25
2023-04-05T07:05:21.532Z,93252.78
2023-04-05T07:06:18.357Z,93285.69
2023-04-05T07:07:15.120Z,93233.72
2023-04-05T07:08:11.702Z,93273.88
2023-04-05T07:09:08.434Z,93279.03
2023-04-05T07:10:05.904Z,93281.03
2023-04-05T07:11:02.548Z,93284.97
2023-04-05T07:12:00.224Z,93242.25
2023-04-05T07:12:56.843Z,93287.97
2023-04-05T07:13:53.424Z,93286.56
2023-04-05T07:14:50.306Z,93259.59
2023-04-05T07:15:47.249Z,93294.03
2023-04-05T07:16:43.871Z,93277.97
2023-04-05T07:17:40.586Z,93290.09
2023-04-05T07:18:37.218Z,93291.69
2023-04-05T07:19:34.114Z,93249.16
2023-04-05T07:20:30.808Z,93295.09
2023-04-05T07:21:27.440Z,93299.50
2023-04-05T07:22:24.141Z,93292.66
2023-04-05T07:23:23.052Z,93291.81
2023-04-05T07:24:19.861Z,93300.44
2023-04-05T07:25:16.544Z,93286.84
2023-04-05T07:26:13.453Z,93289.91
2023-04-05T07:27:10.113Z,93291.16
2023-04-05T07:28:06.730Z,93296.59
2023-04-05T07:29:08.409Z,93294.06
2023-04-05T07:30:07.109Z,93266.47
2023-04-05T07:31:05.862Z,93295.00
2023-04-05T07:32:03.271Z,93292.59
2023-04-05T07:33:00.199Z,93290.19
2023-04-05T07:33:58.220Z,93296.47
2023-04-05T07:34:54.840Z,93308.59
2023-04-05T07:35:55.623Z,93307.13
2023-04-05T07:36:52.186Z,93304.31
2023-04-05T07:37:48.775Z,93302.78
2023-04-05T07:38:45.505Z,93303.94
2023-04-05T07:39:42.045Z,93304.19
2023-04-05T07:40:38.789Z,93291.97
2023-04-05T07:41:35.622Z,93303.78
2023-04-05T07:42:33.641Z,93263.78
2023-04-05T07:43:30.512Z,93311.94
2023-04-05T07:44:27.105Z,93304.78
2023-04-05T07:45:23.870Z,93306.84
2023-04-05T07:46:20.820Z,93310.03
2023-04-05T07:47:17.520Z,93307.25
2023-04-05T07:48:14.131Z,93317.94
2023-04-05T07:49:11.708Z,93314.72
2023-04-05T07:50:10.784Z,93298.88
2023-04-05T07:51:09.994Z,93310.09
2023-04-05T07:52:06.628Z,93306.25
2023-04-05T07:53:03.324Z,93308.44
2023-04-05T07:54:03.103Z,93321.56
2023-04-05T07:55:00.170Z,93300.72
2023-04-05T07:55:57.808Z,93312.78
2023-04-05T07:56:55.866Z,93316.50
2023-04-05T07:57:52.454Z,93313.91
2023-04-05T07:58:50.580Z,93310.09
2023-04-05T07:59:51.029Z,93314.84
2023-04-05T08:00:47.647Z,93317.53
2023-04-05T08:01:44.308Z,93321.88
2023-04-05T08:02:41.460Z,93315.13
2023-04-05T08:03:40.342Z,93321.13
2023-04-05T08:04:37.262Z,93313.50
2023-04-05T08:05:33.963Z,93325.28
2023-04-05T08:06:31.240Z,93324.16
2023-04-05T08:07:27.848Z,93327.72
2023-04-05T08:08:25.441Z,93288.00
2023-04-05T08:09:22.057Z,93332.16
2023-04-05T08:10:18.675Z,93277.41
2023-04-05T08:11:15.637Z,93326.34
2023-04-05T08:12:12.265Z,93330.09
2023-04-05T08:13:08.954Z,93321.63
2023-04-05T08:14:05.839Z,93323.84
2023-04-05T08:15:02.463Z,93331.16
2023-04-05T08:15:59.446Z,93293.78
2023-04-05T08:16:56.103Z,93326.97
2023-04-05T08:17:52.802Z,93315.81
2023-04-05T08:18:49.564Z,93280.00
2023-04-05T08:19:46.156Z,93289.31
2023-04-05T08:20:43.056Z,93326.44
2023-04-05T08:21:39.877Z,93335.78
2023-04-05T08:22:36.496Z,93335.47
2023-04-05T08:23:33.264Z,93324.28
2023-04-05T08:24:30.142Z,93344.38
2023-04-05T08:25:26.814Z,93336.41
2023-04-05T08:26:23.578Z,93346.22
2023-04-05T08:27:20.391Z,93336.50
2023-04-05T08:28:17.325Z,93341.25
2023-04-05T08:29:13.913Z,93347.94
2023-04-05T08:30:10.989Z,93347.47
2023-04-05T08:31:07.797Z,93303.34
2023-04-05T08:32:04.974Z,93354.91
2023-04-05T08:33:01.614Z,93347.72
2023-04-05T08:33:58.175Z,93346.38
2023-04-05T08:34:54.850Z,93355.78
2023-04-05T08:35:51.630Z,93351.16
2023-04-05T08:36:48.915Z,93311.84
2023-04-05T08:37:47.565Z,93352.66
2023-04-05T08:38:44.182Z,93356.16
2023-04-05T08:39:40.765Z,93347.59
2023-04-05T08:40:42.705Z,93341.59
2023-04-05T08:41:46.965Z,93355.25
2023-04-05T08:42:52.502Z,93311.66
2023-04-05T08:44:00.213Z,93300.78
2023-04-05T08:44:59.884Z,93346.38
2023-04-05T08:46:00.008Z,93288.81
2023-04-05T08:46:58.935Z,93349.72
2023-04-05T08:47:55.761Z,93343.38
2023-04-05T08:48:53.153Z,93353.91
2023-04-05T08:49:49.904Z,93354.69
2023-04-05T08:50:53.783Z,93351.69
2023-04-05T08:51:50.535Z,93357.00
2023-04-05T08:52:50.620Z,93367.19
2023-04-05T08:53:48.371Z,93362.72
2023-04-05T08:54:45.048Z,93363.75
2023-04-05T08:55:42.123Z,93359.50
2023-04-05T08:56:39.137Z,93371.03
2023-04-05T08:57:40.061Z,93363.31
2023-04-05T08:58:38.728Z,93364.19
2023-04-05T08:59:39.220Z,93371.56
2023-04-05T09:00:36.153Z,93322.16
2023-04-05T09:01:36.565Z,93353.31
2023-04-05T09:02:34.125Z,93366.47
2023-04-05T09:03:40.205Z,93372.44
2023-04-05T09:04:40.391Z,93370.50
2023-04-05T09:05:39.707Z,93364.81
2023-04-05T09:06:36.710Z,93369.38
2023-04-05T09:07:33.540Z,93373.78
2023-04-05T09:08:30.499Z,93384.53
2023-04-05T09:09:32.697Z,93381.34
2023-04-05T09:10:32.005Z,93383.13
2023-04-05T09:11:28.743Z,93379.31
2023-04-05T09:12:26.752Z,93377.19
2023-04-05T09:13:23.331Z,93367.78
2023-04-05T09:14:21.318Z,93366.88
2023-04-05T09:15:18.404Z,93383.38
2023-04-05T09:16:16.849Z,93376.63
2023-04-05T09:17:15.498Z,93380.53
2023-04-05T09:18:25.546Z,93323.78
2023-04-05T09:19:24.099Z,93379.53
2023-04-05T09:20:20.775Z,93374.97
2023-04-05T09:21:17.790Z,93383.50
2023-04-05T09:22:18.481Z,93367.94
2023-04-05T09:23:15.151Z,93384.41
2023-04-05T09:24:11.739Z,93383.34
2023-04-05T09:25:08.626Z,93365.84
2023-04-05T09:26:21.793Z,93362.34
2023-04-05T09:27:20.535Z,93340.03
2023-04-05T09:28:17.119Z,93378.03
2023-04-05T09:29:29.576Z,93380.34
2023-04-05T09:30:28.117Z,93383.63
2023-04-05T09:31:36.231Z,93374.16
2023-04-05T09:32:33.613Z,93389.91
2023-04-05T09:33:30.852Z,93376.88
2023-04-05T09:34:27.500Z,93197.25
2023-04-05T09:35:28.991Z,93367.75
2023-04-05T09:36:25.958Z,93379.22
2023-04-05T09:37:22.853Z,93378.91
2023-04-05T09:38:19.687Z,93384.53
2023-04-05T09:39:21.673Z,93363.63
2023-04-05T09:40:18.305Z,93379.66
2023-04-05T09:41:14.939Z,93330.69
2023-04-05T09:42:16.058Z,93365.28
2023-04-05T09:43:13.837Z,93372.09
2023-04-05T09:44:10.438Z,93375.56
2023-04-05T09:45:07.586Z,93376.19
2023-04-05T09:46:04.280Z,93369.50
2023-04-05T09:47:16.055Z,93378.97
2023-04-05T09:48:13.751Z,93266.84
2023-04-05T09:49:10.478Z,93367.31
2023-04-05T09:50:16.243Z,93371.28
2023-04-05T09:51:16.862Z,93370.88
2023-04-05T09:52:32.226Z,93369.81
2023-04-05T09:53:29.683Z,93362.50
2023-04-05T09:54:26.452Z,93376.97
2023-04-05T09:55:28.478Z,93376.00
2023-04-05T09:56:25.425Z,93357.25
2023-04-05T09:57:24.106Z,93371.97
2023-04-05T09:58:21.790Z,93365.94
2023-04-05T09:59:18.479Z,93371.34
2023-04-05T10:00:19.745Z,93368.44
2023-04-05T10:01:17.477Z,93373.09
2023-04-05T10:02:15.658Z,93369.97
2023-04-05T10:03:12.551Z,93362.13
2023-04-05T10:04:09.613Z,93361.28
2023-04-05T10:05:13.885Z,93362.56
2023-04-05T10:06:10.779Z,93359.41
2023-04-05T10:07:09.574Z,93367.06
2023-04-05T10:08:07.352Z,93358.44
2023-04-05T10:09:05.257Z,93370.91
2023-04-05T10:10:02.078Z,93364.38
2023-04-05T10:10:59.806Z,93358.38
2023-04-05T10:11:57.175Z,93354.50
2023-04-05T10:12:54.425Z,93364.78
2023-04-05T10:13:51.763Z,93363.38
2023-04-05T10:14:48.482Z,93354.97
2023-04-05T10:15:49.196Z,93364.22
2023-04-05T10:17:12.077Z,93364.81
2023-04-05T10:18:16.204Z,93367.78
2023-04-05T10:19:21.076Z,93361.22
2023-04-05T10:20:22.405Z,93353.41
2023-04-05T10:21:30.144Z,93363.16
2023-04-05T10:22:52.873Z,93328.34
2023-04-05T10:24:05.968Z,93332.75
2023-04-05T10:25:08.332Z,93357.53
2023-04-05T10:26:21.842Z,93358.38
2023-04-05T10:27:28.179Z,93351.63
2023-04-05T10:28:38.022Z,93359.22
2023-04-05T10:30:06.013Z,93346.09
2023-04-05T10:31:37.858Z,93341.66
2023-04-05T10:32:46.066Z,93316.38
2023-04-05T10:33:48.022Z,93358.19
2023-04-05T10:35:09.459Z,93351.78
2023-04-05T10:36:09.891Z,93344.94
2023-04-05T10:37:07.448Z,93342.97
2023-04-05T10:38:22.414Z,93356.38
2023-04-05T10:39:30.444Z,93354.31
2023-04-05T10:40:31.126Z,93317.22
2023-04-05T10:41:34.158Z,93364.75
2023-04-05T10:42:51.213Z,93366.19
2023-04-05T10:43:51.936Z,93353.22
2023-04-05T10:44:53.443Z,93312.03
2023-04-05T10:45:53.932Z,93355.97
2023-04-05T10:46:53.518Z,93358.84
2023-04-05T10:47:55.948Z,93363.78
2023-04-05T10:49:07.741Z,93372.56
2023-04-05T10:50:09.407Z,93357.53
2023-04-05T10:51:06.387Z,93267.84
2023-04-05T10:52:04.071Z,93373.91
2023-04-05T10:53:01.275Z,93368.31
2023-04-05T10:53:58.815Z,93323.53
2023-04-05T10:54:57.384Z,93340.94
2023-04-05T10:55:56.053Z,93368.00
2023-04-05T10:56:53.415Z,93367.16
2023-04-05T10:57:50.793Z,93350.53
2023-04-05T10:58:49.325Z,93364.69
2023-04-05T10:59:47.000Z,93366.78
2023-04-05T11:00:44.939Z,93319.72
2023-04-05T11:01:42.950Z,93330.16
2023-04-05T11:02:39.855Z,93366.94
2023-04-05T11:03:46.287Z,93359.91
2023-04-05T11:04:43.195Z,93351.47
2023-04-05T11:05:40.413Z,93360.66
2023-04-05T11:06:36.998Z,93361.19
2023-04-05T11:07:44.785Z,93363.94
2023-04-05T11:08:43.633Z,93365.66
2023-04-05T11:09:57.190Z,93374.72
2023-04-05T11:10:54.149Z,93365.50
2023-04-05T11:11:52.592Z,93375.59
2023-04-05T11:12:49.363Z,93371.13
2023-04-05T11:13:57.316Z,93356.63
2023-04-05T11:15:25.838Z,93368.31
2023-04-05T11:16:23.956Z,93359.28
2023-04-05T11:17:28.737Z,93371.91
2023-04-05T11:18:25.895Z,93362.31
2023-04-05T11:19:46.479Z,93372.06
2023-04-05T11:21:06.531Z,93383.06
2023-04-05T11:22:03.518Z,93374.44
2023-04-05T11:23:00.285Z,93376.53
2023-04-05T11:24:03.896Z,93372.25
2023-04-05T11:25:03.295Z,93373.63
2023-04-05T11:26:06.888Z,93364.75
2023-04-05T11:27:09.889Z,93320.09
2023-04-05T11:28:06.660Z,93366.28
2023-04-05T11:29:03.292Z,93371.16
2023-04-05T11:30:04.477Z,93375.16
2023-04-05T11:31:20.025Z,93346.69